sensor_id;sensor_type;location;lat;lon;timestamp;pressure;altitude;pressure_sealevel;temperature;humidity
19596;BME280;9945;46.010;8.946;2022-11-20T00:01:05;96450.06;;;12.13;32.50
19596;BME280;9945;46.010;8.946;2022-11-20T00:03:32;96456.94;;;12.14;33.08
19596;BME280;9945;46.010;8.946;2022-11-20T00:06:01;96465.63;;;12.15;33.54
19596;BME280;9945;46.010;8.946;2022-11-20T00:08:28;96462.63;;;12.18;31.76
19596;BME280;9945;46.010;8.946;2022-11-20T00:10:55;96461.81;;;12.17;33.36
19596;BME280;9945;46.010;8.946;2022-11-20T00:13:21;96461.19;;;12.15;32.00
19596;BME280;9945;46.010;8.946;2022-11-20T00:15:50;96462.84;;;12.16;31.62
19596;BME280;9945;46.010;8.946;2022-11-20T00:18:22;96470.88;;;12.15;32.15
19596;BME280;9945;46.010;8.946;2022-11-20T00:20:49;96470.34;;;12.19;32.18
19596;BME280;9945;46.010;8.946;2022-11-20T00:23:17;96475.41;;;12.21;33.13
19596;BME280;9945;46.010;8.946;2022-11-20T00:25:44;96479.56;;;12.15;31.52
19596;BME280;9945;46.010;8.946;2022-11-20T00:28:11;96480.72;;;12.12;32.51
19596;BME280;9945;46.010;8.946;2022-11-20T00:30:38;96475.47;;;12.12;33.13
19596;BME280;9945;46.010;8.946;2022-11-20T00:33:05;96483.63;;;12.18;31.47
19596;BME280;9945;46.010;8.946;2022-11-20T00:35:32;96490.22;;;12.13;31.85
19596;BME280;9945;46.010;8.946;2022-11-20T00:37:59;96490.06;;;12.15;33.21
19596;BME280;9945;46.010;8.946;2022-11-20T00:40:27;96491.88;;;12.15;32.12
19596;BME280;9945;46.010;8.946;2022-11-20T00:42:54;96491.22;;;12.12;32.18
19596;BME280;9945;46.010;8.946;2022-11-20T00:45:21;96494.50;;;12.15;32.12
19596;BME280;9945;46.010;8.946;2022-11-20T00:47:48;96495.66;;;12.12;32.58
19596;BME280;9945;46.010;8.946;2022-11-20T00:50:15;96491.88;;;12.15;31.87
19596;BME280;9945;46.010;8.946;2022-11-20T00:52:42;96499.16;;;12.04;37.14
19596;BME280;9945;46.010;8.946;2022-11-20T00:55:08;96491.34;;;11.96;42.06
19596;BME280;9945;46.010;8.946;2022-11-20T00:57:37;96490.97;;;11.77;43.38
19596;BME280;9945;46.010;8.946;2022-11-20T01:00:05;96491.97;;;11.67;42.46
19596;BME280;9945;46.010;8.946;2022-11-20T01:02:32;96495.81;;;11.57;41.24
19596;BME280;9945;46.010;8.946;2022-11-20T01:04:58;96491.34;;;11.57;45.79
19596;BME280;9945;46.010;8.946;2022-11-20T01:07:25;96495.25;;;11.38;47.21
19596;BME280;9945;46.010;8.946;2022-11-20T01:09:52;96493.47;;;11.31;47.74
19596;BME280;9945;46.010;8.946;2022-11-20T01:12:19;96491.19;;;11.28;48.52
19596;BME280;9945;46.010;8.946;2022-11-20T01:14:48;96497.59;;;11.17;48.59
19596;BME280;9945;46.010;8.946;2022-11-20T01:17:15;96499.72;;;11.22;44.46
19596;BME280;9945;46.010;8.946;2022-11-20T01:19:42;96497.94;;;11.22;44.84
19596;BME280;9945;46.010;8.946;2022-11-20T01:22:09;96505.31;;;11.19;48.90
19596;BME280;9945;46.010;8.946;2022-11-20T01:24:36;96506.47;;;11.08;49.80
19596;BME280;9945;46.010;8.946;2022-11-20T01:27:03;96508.84;;;10.87;51.20
19596;BME280;9945;46.010;8.946;2022-11-20T01:29:30;96514.06;;;10.87;51.91
19596;BME280;9945;46.010;8.946;2022-11-20T01:31:58;96520.75;;;10.89;51.90
19596;BME280;9945;46.010;8.946;2022-11-20T01:34:25;96527.78;;;10.89;53.43
19596;BME280;9945;46.010;8.946;2022-11-20T01:36:52;96518.84;;;10.75;52.91
19596;BME280;9945;46.010;8.946;2022-11-20T01:39:20;96518.66;;;10.77;52.04
19596;BME280;9945;46.010;8.946;2022-11-20T01:41:49;96513.28;;;10.70;51.51
19596;BME280;9945;46.010;8.946;2022-11-20T01:44:48;96521.63;;;10.66;51.34
19596;BME280;9945;46.010;8.946;2022-11-20T01:47:21;96527.03;;;10.64;50.84
19596;BME280;9945;46.010;8.946;2022-11-20T01:49:52;96519.69;;;10.51;53.98
19596;BME280;9945;46.010;8.946;2022-11-20T01:52:23;96521.31;;;10.52;53.83
19596;BME280;9945;46.010;8.946;2022-11-20T01:54:56;96527.53;;;10.43;54.75
19596;BME280;9945;46.010;8.946;2022-11-20T01:57:25;96523.28;;;10.34;54.39
19596;BME280;9945;46.010;8.946;2022-11-20T01:59:58;96521.66;;;10.41;55.10
19596;BME280;9945;46.010;8.946;2022-11-20T02:02:28;96517.53;;;10.47;54.83
19596;BME280;9945;46.010;8.946;2022-11-20T02:04:57;96526.38;;;10.30;55.52
19596;BME280;9945;46.010;8.946;2022-11-20T02:07:27;96528.19;;;10.37;56.69
19596;BME280;9945;46.010;8.946;2022-11-20T02:09:55;96524.56;;;10.30;56.90
19596;BME280;9945;46.010;8.946;2022-11-20T02:12:21;96528.34;;;10.28;57.54
19596;BME280;9945;46.010;8.946;2022-11-20T02:15:06;96527.19;;;10.22;57.07
19596;BME280;9945;46.010;8.946;2022-11-20T02:17:34;96523.28;;;10.26;56.90
19596;BME280;9945;46.010;8.946;2022-11-20T02:20:02;96526.84;;;10.17;57.80
19596;BME280;9945;46.010;8.946;2022-11-20T02:22:35;96531.78;;;10.20;58.15
19596;BME280;9945;46.010;8.946;2022-11-20T02:25:07;96532.53;;;10.12;57.32
19596;BME280;9945;46.010;8.946;2022-11-20T02:27:34;96532.53;;;10.12;58.76
19596;BME280;9945;46.010;8.946;2022-11-20T02:30:04;96532.53;;;10.12;57.99
19596;BME280;9945;46.010;8.946;2022-11-20T02:32:34;96538.00;;;10.19;57.86
19596;BME280;9945;46.010;8.946;2022-11-20T02:35:07;96535.81;;;10.14;58.23
19596;BME280;9945;46.010;8.946;2022-11-20T02:37:36;96539.25;;;10.07;58.22
19596;BME280;9945;46.010;8.946;2022-11-20T02:40:06;96535.16;;;10.04;57.89
19596;BME280;9945;46.010;8.946;2022-11-20T02:42:34;96536.78;;;10.05;58.08
19596;BME280;9945;46.010;8.946;2022-11-20T02:45:01;96529.75;;;10.06;55.95
19596;BME280;9945;46.010;8.946;2022-11-20T02:47:27;96542.50;;;10.01;55.12
19596;BME280;9945;46.010;8.946;2022-11-20T02:49:54;96538.91;;;9.94;56.09
19596;BME280;9945;46.010;8.946;2022-11-20T02:52:21;96535.78;;;9.90;55.57
19596;BME280;9945;46.010;8.946;2022-11-20T02:54:48;96547.06;;;9.91;56.71
19596;BME280;9945;46.010;8.946;2022-11-20T02:57:16;96535.97;;;9.97;55.40
19596;BME280;9945;46.010;8.946;2022-11-20T02:59:43;96542.34;;;9.94;55.80
19596;BME280;9945;46.010;8.946;2022-11-20T03:02:10;96539.88;;;9.93;57.12
19596;BME280;9945;46.010;8.946;2022-11-20T03:04:37;96539.56;;;9.96;56.07
19596;BME280;9945;46.010;8.946;2022-11-20T03:07:04;96546.91;;;9.92;57.09
19596;BME280;9945;46.010;8.946;2022-11-20T03:09:31;96540.53;;;9.86;56.71
19596;BME280;9945;46.010;8.946;2022-11-20T03:11:57;96542.78;;;9.73;57.39
19596;BME280;9945;46.010;8.946;2022-11-20T03:14:26;96538.88;;;9.77;57.63
19596;BME280;9945;46.010;8.946;2022-11-20T03:16:52;96544.28;;;9.84;55.01
19596;BME280;9945;46.010;8.946;2022-11-20T03:19:19;96538.72;;;9.87;56.93
19596;BME280;9945;46.010;8.946;2022-11-20T03:21:46;96541.97;;;9.81;55.76
19596;BME280;9945;46.010;8.946;2022-11-20T03:24:14;96542.47;;;9.76;55.23
19596;BME280;9945;46.010;8.946;2022-11-20T03:26:41;96539.84;;;9.68;58.14
19596;BME280;9945;46.010;8.946;2022-11-20T03:29:08;96535.91;;;9.72;53.75
19596;BME280;9945;46.010;8.946;2022-11-20T03:31:37;96539.22;;;9.82;53.57
19596;BME280;9945;46.010;8.946;2022-11-20T03:34:06;96548.66;;;9.75;53.70
19596;BME280;9945;46.010;8.946;2022-11-20T03:36:34;96545.91;;;9.77;55.95
19596;BME280;9945;46.010;8.946;2022-11-20T03:39:01;96542.63;;;9.75;56.17
19596;BME280;9945;46.010;8.946;2022-11-20T03:41:30;96539.16;;;9.66;54.61
19596;BME280;9945;46.010;8.946;2022-11-20T03:43:58;96541.47;;;9.69;54.04
19596;BME280;9945;46.010;8.946;2022-11-20T03:46:26;96537.34;;;9.59;55.47
19596;BME280;9945;46.010;8.946;2022-11-20T03:48:55;96537.69;;;9.64;55.48
19596;BME280;9945;46.010;8.946;2022-11-20T03:51:23;96543.56;;;9.58;53.89
19596;BME280;9945;46.010;8.946;2022-11-20T03:53:53;96546.38;;;9.72;54.38
19596;BME280;9945;46.010;8.946;2022-11-20T03:56:23;96541.59;;;9.60;55.68
19596;BME280;9945;46.010;8.946;2022-11-20T03:58:51;96545.84;;;9.61;55.15
19596;BME280;9945;46.010;8.946;2022-11-20T04:01:19;96550.91;;;9.62;54.16
19596;BME280;9945;46.010;8.946;2022-11-20T04:03:47;96557.25;;;9.52;55.67
19596;BME280;9945;46.010;8.946;2022-11-20T04:06:17;96557.44;;;9.58;55.62
19596;BME280;9945;46.010;8.946;2022-11-20T04:08:45;96552.38;;;9.65;54.78
19596;BME280;9945;46.010;8.946;2022-11-20T04:11:14;96552.22;;;9.58;54.35
19596;BME280;9945;46.010;8.946;2022-11-20T04:13:42;96555.16;;;9.63;55.46
19596;BME280;9945;46.010;8.946;2022-11-20T04:16:09;96550.91;;;9.62;54.80
19596;BME280;9945;46.010;8.946;2022-11-20T04:18:37;96555.31;;;9.62;55.63
19596;BME280;9945;46.010;8.946;2022-11-20T04:21:05;96551.56;;;9.64;54.23
19596;BME280;9945;46.010;8.946;2022-11-20T04:23:33;96550.06;;;9.62;55.45
19596;BME280;9945;46.010;8.946;2022-11-20T04:26:01;96550.69;;;9.47;55.56
19596;BME280;9945;46.010;8.946;2022-11-20T04:28:28;96551.50;;;9.48;56.50
19596;BME280;9945;46.010;8.946;2022-11-20T04:31:01;96558.34;;;9.41;54.46
19596;BME280;9945;46.010;8.946;2022-11-20T04:33:28;96559.03;;;9.43;55.22
19596;BME280;9945;46.010;8.946;2022-11-20T04:36:00;96562.09;;;9.38;57.05
19596;BME280;9945;46.010;8.946;2022-11-20T04:38:27;96555.38;;;9.36;56.87
19596;BME280;9945;46.010;8.946;2022-11-20T04:40:57;96559.47;;;9.38;55.39
19596;BME280;9945;46.010;8.946;2022-11-20T04:43:25;96553.78;;;9.43;56.26
19596;BME280;9945;46.010;8.946;2022-11-20T04:45:52;96564.00;;;9.28;58.28
19596;BME280;9945;46.010;8.946;2022-11-20T04:48:19;96565.47;;;9.31;57.92
19596;BME280;9945;46.010;8.946;2022-11-20T04:50:46;96564.91;;;9.19;57.45
19596;BME280;9945;46.010;8.946;2022-11-20T04:53:12;96567.56;;;9.27;57.16
19596;BME280;9945;46.010;8.946;2022-11-20T04:55:39;96571.53;;;9.31;56.32
19596;BME280;9945;46.010;8.946;2022-11-20T04:58:08;96570.03;;;9.29;56.15
19596;BME280;9945;46.010;8.946;2022-11-20T05:00:35;96568.09;;;9.31;56.62
19596;BME280;9945;46.010;8.946;2022-11-20T05:03:02;96578.72;;;9.37;56.05
19596;BME280;9945;46.010;8.946;2022-11-20T05:05:29;96570.88;;;9.37;54.45
19596;BME280;9945;46.010;8.946;2022-11-20T05:07:56;96586.06;;;9.34;54.75
19596;BME280;9945;46.010;8.946;2022-11-20T05:10:23;96581.16;;;9.31;54.69
19596;BME280;9945;46.010;8.946;2022-11-20T05:12:50;96588.69;;;9.34;54.68
19596;BME280;9945;46.010;8.946;2022-11-20T05:15:19;96595.81;;;9.24;56.78
19596;BME280;9945;46.010;8.946;2022-11-20T05:17:47;96591.84;;;9.20;57.95
19596;BME280;9945;46.010;8.946;2022-11-20T05:20:14;96596.63;;;9.24;56.33
19596;BME280;9945;46.010;8.946;2022-11-20T05:22:41;96596.72;;;9.15;56.14
19596;BME280;9945;46.010;8.946;2022-11-20T05:25:09;96600.94;;;9.07;55.07
19596;BME280;9945;46.010;8.946;2022-11-20T05:27:36;96607.31;;;9.13;54.98
19596;BME280;9945;46.010;8.946;2022-11-20T05:30:03;96605.53;;;9.14;54.97
19596;BME280;9945;46.010;8.946;2022-11-20T05:32:32;96607.19;;;9.15;54.71
19596;BME280;9945;46.010;8.946;2022-11-20T05:34:59;96606.22;;;9.16;56.27
19596;BME280;9945;46.010;8.946;2022-11-20T05:37:26;96610.84;;;9.04;56.20
19596;BME280;9945;46.010;8.946;2022-11-20T05:39:52;96618.44;;;9.15;54.56
19596;BME280;9945;46.010;8.946;2022-11-20T05:42:19;96615.88;;;9.23;56.62
19596;BME280;9945;46.010;8.946;2022-11-20T05:44:59;96615.41;;;9.28;56.91
19596;BME280;9945;46.010;8.946;2022-11-20T05:47:27;96622.06;;;9.22;57.31
19596;BME280;9945;46.010;8.946;2022-11-20T05:49:55;96619.88;;;9.09;57.28
19596;BME280;9945;46.010;8.946;2022-11-20T05:52:22;96617.63;;;9.15;57.77
19596;BME280;9945;46.010;8.946;2022-11-20T05:54:49;96617.88;;;9.03;56.12
19596;BME280;9945;46.010;8.946;2022-11-20T05:57:16;96624.59;;;9.06;56.57
19596;BME280;9945;46.010;8.946;2022-11-20T05:59:43;96622.44;;;9.01;55.81
19596;BME280;9945;46.010;8.946;2022-11-20T06:02:10;96630.34;;;9.09;56.04
19596;BME280;9945;46.010;8.946;2022-11-20T06:04:36;96628.75;;;9.17;56.22
19596;BME280;9945;46.010;8.946;2022-11-20T06:07:06;96628.38;;;9.11;56.92
19596;BME280;9945;46.010;8.946;2022-11-20T06:09:33;96634.69;;;9.01;57.46
19596;BME280;9945;46.010;8.946;2022-11-20T06:12:00;96639.53;;;8.96;57.88
19596;BME280;9945;46.010;8.946;2022-11-20T06:14:27;96642.81;;;8.98;56.10
19596;BME280;9945;46.010;8.946;2022-11-20T06:16:53;96644.88;;;8.94;57.27
19596;BME280;9945;46.010;8.946;2022-11-20T06:19:23;96644.44;;;8.99;58.29
19596;BME280;9945;46.010;8.946;2022-11-20T06:21:50;96642.28;;;8.94;58.25
19596;BME280;9945;46.010;8.946;2022-11-20T06:24:18;96649.81;;;8.97;55.79
19596;BME280;9945;46.010;8.946;2022-11-20T06:26:45;96644.25;;;8.92;56.41
19596;BME280;9945;46.010;8.946;2022-11-20T06:29:12;96656.69;;;8.98;57.43
19596;BME280;9945;46.010;8.946;2022-11-20T06:31:38;96660.00;;;8.83;58.24
19596;BME280;9945;46.010;8.946;2022-11-20T06:34:08;96658.84;;;8.85;56.67
19596;BME280;9945;46.010;8.946;2022-11-20T06:36:34;96661.78;;;8.82;57.71
19596;BME280;9945;46.010;8.946;2022-11-20T06:39:02;96664.81;;;8.95;56.42
19596;BME280;9945;46.010;8.946;2022-11-20T06:41:30;96670.03;;;8.95;57.66
19596;BME280;9945;46.010;8.946;2022-11-20T06:43:57;96668.56;;;8.93;57.82
19596;BME280;9945;46.010;8.946;2022-11-20T06:46:24;96674.75;;;8.92;57.14
19596;BME280;9945;46.010;8.946;2022-11-20T06:48:51;96671.22;;;9.01;58.08
19596;BME280;9945;46.010;8.946;2022-11-20T06:51:18;96677.47;;;9.08;58.20
19596;BME280;9945;46.010;8.946;2022-11-20T06:53:45;96678.66;;;9.14;58.92
19596;BME280;9945;46.010;8.946;2022-11-20T06:56:12;96681.94;;;9.16;56.07
19596;BME280;9945;46.010;8.946;2022-11-20T06:58:40;96686.13;;;9.08;57.06
19596;BME280;9945;46.010;8.946;2022-11-20T07:01:09;96688.75;;;9.08;57.08
19596;BME280;9945;46.010;8.946;2022-11-20T07:03:36;96692.88;;;9.19;57.44
19596;BME280;9945;46.010;8.946;2022-11-20T07:06:04;96692.31;;;9.07;57.71
19596;BME280;9945;46.010;8.946;2022-11-20T07:08:32;96697.66;;;9.24;57.95
19596;BME280;9945;46.010;8.946;2022-11-20T07:11:00;96698.69;;;9.31;57.02
19596;BME280;9945;46.010;8.946;2022-11-20T07:13:28;96707.00;;;9.26;56.02
19596;BME280;9945;46.010;8.946;2022-11-20T07:15:59;96700.28;;;9.24;56.03
19596;BME280;9945;46.010;8.946;2022-11-20T07:18:26;96708.72;;;9.18;56.87
19596;BME280;9945;46.010;8.946;2022-11-20T07:20:53;96712.91;;;9.10;55.73
19596;BME280;9945;46.010;8.946;2022-11-20T07:23:20;96715.63;;;9.01;55.83
19596;BME280;9945;46.010;8.946;2022-11-20T07:25:47;96713.44;;;8.96;56.72
19596;BME280;9945;46.010;8.946;2022-11-20T07:28:14;96717.41;;;9.00;56.49
19596;BME280;9945;46.010;8.946;2022-11-20T07:30:49;96727.69;;;9.02;57.28
19596;BME280;9945;46.010;8.946;2022-11-20T07:33:18;96730.28;;;9.02;57.23
19596;BME280;9945;46.010;8.946;2022-11-20T07:35:45;96723.94;;;9.04;58.03
19596;BME280;9945;46.010;8.946;2022-11-20T07:38:12;96733.63;;;9.12;57.08
19596;BME280;9945;46.010;8.946;2022-11-20T07:40:39;96736.56;;;9.27;58.52
19596;BME280;9945;46.010;8.946;2022-11-20T07:43:05;96737.16;;;9.46;56.69
19596;BME280;9945;46.010;8.946;2022-11-20T07:45:32;96727.53;;;9.73;55.96
19596;BME280;9945;46.010;8.946;2022-11-20T07:47:59;96732.06;;;9.97;55.09
19596;BME280;9945;46.010;8.946;2022-11-20T07:50:28;96734.19;;;10.19;53.99
19596;BME280;9945;46.010;8.946;2022-11-20T07:53:00;96727.72;;;10.47;52.60
19596;BME280;9945;46.010;8.946;2022-11-20T07:55:27;96727.81;;;10.72;51.96
19596;BME280;9945;46.010;8.946;2022-11-20T07:57:54;96739.13;;;10.96;51.16
19596;BME280;9945;46.010;8.946;2022-11-20T08:00:22;96732.72;;;10.99;51.27
19596;BME280;9945;46.010;8.946;2022-11-20T08:02:49;96736.38;;;11.14;51.29
19596;BME280;9945;46.010;8.946;2022-11-20T08:05:16;96745.03;;;11.15;50.68
19596;BME280;9945;46.010;8.946;2022-11-20T08:07:44;96744.53;;;11.35;50.03
19596;BME280;9945;46.010;8.946;2022-11-20T08:10:13;96748.97;;;11.35;49.06
19596;BME280;9945;46.010;8.946;2022-11-20T08:12:44;96759.28;;;11.61;48.37
19596;BME280;9945;46.010;8.946;2022-11-20T08:15:29;96756.31;;;11.88;49.05
19596;BME280;9945;46.010;8.946;2022-11-20T08:18:00;96760.03;;;12.10;48.01
19596;BME280;9945;46.010;8.946;2022-11-20T08:20:27;96764.28;;;12.11;48.37
19596;BME280;9945;46.010;8.946;2022-11-20T08:22:59;96758.84;;;12.21;48.47
19596;BME280;9945;46.010;8.946;2022-11-20T08:25:27;96769.75;;;12.48;48.40
19596;BME280;9945;46.010;8.946;2022-11-20T08:27:54;96774.19;;;13.10;45.61
19596;BME280;9945;46.010;8.946;2022-11-20T08:30:23;96767.66;;;14.18;42.77
19596;BME280;9945;46.010;8.946;2022-11-20T08:32:49;96769.53;;;18.64;35.12
19596;BME280;9945;46.010;8.946;2022-11-20T08:35:16;96768.28;;;20.06;32.23
19596;BME280;9945;46.010;8.946;2022-11-20T08:37:46;96762.31;;;17.87;33.85
19596;BME280;9945;46.010;8.946;2022-11-20T08:40:14;96763.47;;;17.19;36.31
19596;BME280;9945;46.010;8.946;2022-11-20T08:42:51;96769.19;;;18.34;34.74
19596;BME280;9945;46.010;8.946;2022-11-20T08:45:18;96778.81;;;23.26;27.48
19596;BME280;9945;46.010;8.946;2022-11-20T08:47:46;96772.22;;;26.98;22.50
19596;BME280;9945;46.010;8.946;2022-11-20T08:50:14;96784.75;;;28.76;21.02
19596;BME280;9945;46.010;8.946;2022-11-20T08:52:41;96783.06;;;29.99;19.89
19596;BME280;9945;46.010;8.946;2022-11-20T08:55:09;96783.44;;;30.98;17.79
19596;BME280;9945;46.010;8.946;2022-11-20T08:57:37;96789.19;;;31.39;17.55
19596;BME280;9945;46.010;8.946;2022-11-20T09:00:07;96782.59;;;31.82;17.11
19596;BME280;9945;46.010;8.946;2022-11-20T09:02:34;96780.78;;;32.75;16.79
19596;BME280;9945;46.010;8.946;2022-11-20T09:05:01;96788.38;;;34.27;15.52
19596;BME280;9945;46.010;8.946;2022-11-20T09:07:29;96777.84;;;33.90;16.20
19596;BME280;9945;46.010;8.946;2022-11-20T09:09:56;96777.28;;;34.54;15.56
19596;BME280;9945;46.010;8.946;2022-11-20T09:12:23;96776.84;;;35.57;14.59
19596;BME280;9945;46.010;8.946;2022-11-20T09:14:51;96778.81;;;35.91;13.91
19596;BME280;9945;46.010;8.946;2022-11-20T09:17:18;96772.16;;;34.44;14.51
19596;BME280;9945;46.010;8.946;2022-11-20T09:19:46;96776.22;;;37.23;13.19
19596;BME280;9945;46.010;8.946;2022-11-20T09:22:13;96777.72;;;36.73;13.58
19596;BME280;9945;46.010;8.946;2022-11-20T09:24:40;96783.22;;;37.62;13.19
19596;BME280;9945;46.010;8.946;2022-11-20T09:27:08;96778.28;;;37.76;12.69
19596;BME280;9945;46.010;8.946;2022-11-20T09:29:34;96780.25;;;36.32;13.60
19596;BME280;9945;46.010;8.946;2022-11-20T09:32:03;96783.31;;;38.28;12.43
19596;BME280;9945;46.010;8.946;2022-11-20T09:34:31;96781.19;;;38.12;12.37
19596;BME280;9945;46.010;8.946;2022-11-20T09:36:58;96788.97;;;38.10;12.45
19596;BME280;9945;46.010;8.946;2022-11-20T09:39:25;96791.63;;;38.31;12.32
19596;BME280;9945;46.010;8.946;2022-11-20T09:45:05;96782.06;;;38.82;11.70
19596;BME280;9945;46.010;8.946;2022-11-20T09:47:47;96786.72;;;39.79;11.40
19596;BME280;9945;46.010;8.946;2022-11-20T09:50:26;96782.88;;;40.52;10.82
19596;BME280;9945;46.010;8.946;2022-11-20T09:53:03;96773.72;;;40.04;10.55
19596;BME280;9945;46.010;8.946;2022-11-20T09:55:34;96782.06;;;41.80;10.00
19596;BME280;9945;46.010;8.946;2022-11-20T09:58:05;96769.75;;;41.39;9.96
19596;BME280;9945;46.010;8.946;2022-11-20T10:00:34;96764.84;;;39.95;10.75
19596;BME280;9945;46.010;8.946;2022-11-20T10:03:11;96762.03;;;40.07;10.72
19596;BME280;9945;46.010;8.946;2022-11-20T10:05:43;96768.00;;;38.59;11.67
19596;BME280;9945;46.010;8.946;2022-11-20T10:08:16;96764.97;;;39.10;11.43
19596;BME280;9945;46.010;8.946;2022-11-20T10:10:47;96757.47;;;38.94;11.46
19596;BME280;9945;46.010;8.946;2022-11-20T10:13:28;96744.56;;;38.95;11.39
19596;BME280;9945;46.010;8.946;2022-11-20T10:16:12;96748.41;;;39.83;11.24
19596;BME280;9945;46.010;8.946;2022-11-20T10:19:00;96742.38;;;39.65;11.28
19596;BME280;9945;46.010;8.946;2022-11-20T10:21:35;96739.91;;;37.43;12.08
19596;BME280;9945;46.010;8.946;2022-11-20T10:27:26;96728.66;;;36.48;13.05
19596;BME280;9945;46.010;8.946;2022-11-20T10:30:01;96713.75;;;34.99;14.11
19596;BME280;9945;46.010;8.946;2022-11-20T10:32:33;96721.50;;;36.26;13.65
19596;BME280;9945;46.010;8.946;2022-11-20T10:35:14;96717.38;;;35.51;13.13
19596;BME280;9945;46.010;8.946;2022-11-20T10:37:44;96713.03;;;35.41;11.84
19596;BME280;9945;46.010;8.946;2022-11-20T10:40:21;96708.16;;;34.86;9.82
19596;BME280;9945;46.010;8.946;2022-11-20T10:42:51;96714.09;;;35.06;10.11
19596;BME280;9945;46.010;8.946;2022-11-20T10:45:31;96711.22;;;35.02;9.91
19596;BME280;9945;46.010;8.946;2022-11-20T10:48:10;96709.00;;;35.21;10.46
19596;BME280;9945;46.010;8.946;2022-11-20T10:50:49;96719.31;;;35.85;10.73
19596;BME280;9945;46.010;8.946;2022-11-20T10:53:27;96722.22;;;36.52;12.71
19596;BME280;9945;46.010;8.946;2022-11-20T10:56:02;96712.59;;;36.46;12.95
19596;BME280;9945;46.010;8.946;2022-11-20T10:58:38;96705.81;;;36.06;13.36
19596;BME280;9945;46.010;8.946;2022-11-20T11:01:13;96704.84;;;33.74;14.14
19596;BME280;9945;46.010;8.946;2022-11-20T11:03:41;96699.19;;;34.86;14.64
19596;BME280;9945;46.010;8.946;2022-11-20T11:06:17;96693.81;;;35.63;13.53
19596;BME280;9945;46.010;8.946;2022-11-20T11:08:46;96689.59;;;36.00;12.50
19596;BME280;9945;46.010;8.946;2022-11-20T11:11:21;96692.53;;;35.61;11.42
19596;BME280;9945;46.010;8.946;2022-11-20T11:13:49;96690.88;;;36.20;9.75
19596;BME280;9945;46.010;8.946;2022-11-20T11:16:20;96692.38;;;35.75;10.10
19596;BME280;9945;46.010;8.946;2022-11-20T11:18:48;96693.22;;;34.75;10.16
19596;BME280;9945;46.010;8.946;2022-11-20T11:21:22;96688.38;;;35.38;12.82
19596;BME280;9945;46.010;8.946;2022-11-20T11:23:58;96684.41;;;36.71;12.59
19596;BME280;9945;46.010;8.946;2022-11-20T11:26:25;96675.56;;;35.73;13.64
19596;BME280;9945;46.010;8.946;2022-11-20T11:28:54;96671.66;;;34.96;14.02
19596;BME280;9945;46.010;8.946;2022-11-20T11:31:23;96660.78;;;34.96;13.09
19596;BME280;9945;46.010;8.946;2022-11-20T11:33:50;96667.69;;;35.88;12.68
19596;BME280;9945;46.010;8.946;2022-11-20T11:36:21;96661.47;;;37.23;10.02
19596;BME280;9945;46.010;8.946;2022-11-20T11:38:51;96657.19;;;36.54;9.39
19596;BME280;9945;46.010;8.946;2022-11-20T11:41:20;96657.06;;;37.51;8.67
19596;BME280;9945;46.010;8.946;2022-11-20T11:43:54;96662.03;;;37.07;8.86
19596;BME280;9945;46.010;8.946;2022-11-20T11:46:43;96652.00;;;35.42;10.75
19596;BME280;9945;46.010;8.946;2022-11-20T11:49:17;96651.44;;;34.88;14.45
19596;BME280;9945;46.010;8.946;2022-11-20T11:52:00;96648.91;;;35.09;14.33
19596;BME280;9945;46.010;8.946;2022-11-20T11:54:34;96648.16;;;35.43;14.35
19596;BME280;9945;46.010;8.946;2022-11-20T11:57:11;96652.47;;;35.27;13.65
19596;BME280;9945;46.010;8.946;2022-11-20T11:59:51;96643.94;;;34.85;13.90
19596;BME280;9945;46.010;8.946;2022-11-20T12:02:30;96641.41;;;35.41;11.88
19596;BME280;9945;46.010;8.946;2022-11-20T12:05:03;96634.00;;;35.15;10.14
19596;BME280;9945;46.010;8.946;2022-11-20T12:07:41;96623.59;;;34.83;13.50
19596;BME280;9945;46.010;8.946;2022-11-20T12:10:16;96625.53;;;35.43;13.23
19596;BME280;9945;46.010;8.946;2022-11-20T12:12:50;96623.66;;;34.52;13.28
19596;BME280;9945;46.010;8.946;2022-11-20T12:15:25;96623.84;;;32.82;15.03
19596;BME280;9945;46.010;8.946;2022-11-20T12:17:53;96612.56;;;32.89;14.57
19596;BME280;9945;46.010;8.946;2022-11-20T12:20:22;96604.53;;;32.84;12.25
19596;BME280;9945;46.010;8.946;2022-11-20T12:22:56;96613.31;;;32.40;13.12
19596;BME280;9945;46.010;8.946;2022-11-20T12:25:28;96606.00;;;31.67;14.62
19596;BME280;9945;46.010;8.946;2022-11-20T12:28:11;96603.00;;;31.36;14.12
19596;BME280;9945;46.010;8.946;2022-11-20T12:30:52;96603.78;;;32.15;14.49
19596;BME280;9945;46.010;8.946;2022-11-20T12:33:40;96605.56;;;32.60;11.51
19596;BME280;9945;46.010;8.946;2022-11-20T12:36:19;96609.19;;;33.05;12.07
19596;BME280;9945;46.010;8.946;2022-11-20T12:39:11;96609.50;;;34.24;10.12
19596;BME280;9945;46.010;8.946;2022-11-20T12:41:54;96607.44;;;34.78;9.80
19596;BME280;9945;46.010;8.946;2022-11-20T12:44:52;96609.06;;;35.05;10.68
19596;BME280;9945;46.010;8.946;2022-11-20T12:47:51;96601.00;;;33.64;13.66
19596;BME280;9945;46.010;8.946;2022-11-20T12:50:30;96596.88;;;33.97;13.72
19596;BME280;9945;46.010;8.946;2022-11-20T12:53:04;96584.81;;;34.21;10.98
19596;BME280;9945;46.010;8.946;2022-11-20T12:55:44;96588.03;;;34.88;9.98
19596;BME280;9945;46.010;8.946;2022-11-20T12:58:19;96590.72;;;34.53;9.56
19596;BME280;9945;46.010;8.946;2022-11-20T13:00:56;96585.66;;;35.04;9.16
19596;BME280;9945;46.010;8.946;2022-11-20T13:03:41;96584.44;;;34.05;10.10
19596;BME280;9945;46.010;8.946;2022-11-20T13:06:13;96590.66;;;34.28;9.80
19596;BME280;9945;46.010;8.946;2022-11-20T13:08:45;96585.59;;;34.12;10.54
19596;BME280;9945;46.010;8.946;2022-11-20T13:11:19;96586.78;;;35.11;9.75
19596;BME280;9945;46.010;8.946;2022-11-20T13:14:05;96578.13;;;34.92;9.99
19596;BME280;9945;46.010;8.946;2022-11-20T13:16:47;96577.78;;;34.11;12.90
19596;BME280;9945;46.010;8.946;2022-11-20T13:19:18;96571.69;;;34.14;12.93
19596;BME280;9945;46.010;8.946;2022-11-20T13:21:46;96569.69;;;33.97;12.15
19596;BME280;9945;46.010;8.946;2022-11-20T13:24:25;96568.78;;;34.67;11.05
19596;BME280;9945;46.010;8.946;2022-11-20T13:27:05;96566.19;;;32.63;14.22
19596;BME280;9945;46.010;8.946;2022-11-20T13:29:45;96564.88;;;29.91;16.69
19596;BME280;9945;46.010;8.946;2022-11-20T13:32:15;96557.44;;;27.17;20.15
19596;BME280;9945;46.010;8.946;2022-11-20T13:34:51;96559.81;;;26.67;21.21
19596;BME280;9945;46.010;8.946;2022-11-20T13:37:26;96555.00;;;25.50;20.52